Time;durP1;ratioP1;P1;durP2;ratioP2;P2;SDS_P1;SDS_P2;PMS_P1;PMS_P2;Temp;Humidity;BMP_temperature;BMP_pressure;BME280_temperature;BME280_humidity;BME280_pressure;Samples;Min_cycle;Max_cycle;Signal;HPM_P1;HPM_P2
2021/03/26 00:01:03;;;;;;;;;84.67;65.00;;;;;5.10;83.21;101210.56;5126749;27;8889;-75
2021/03/26 00:04:01;;;;;;;;;83.67;66.00;;;;;5.23;83.08;101208.03;5130340;27;8831;-75
2021/03/26 00:06:57;;;;;;;;;76.00;62.00;;;;;5.12;83.37;101209.19;5145081;27;8849;-75
2021/03/26 00:09:52;;;;;;;;;78.00;61.67;;;;;5.19;83.00;101204.22;5134044;27;8807;-75
2021/03/26 00:12:48;;;;;;;;;84.00;65.33;;;;;5.16;83.39;101199.31;5141167;27;8853;-74
2021/03/26 00:15:44;;;;;;;;;75.00;62.33;;;;;5.18;83.23;101205.31;5132306;27;8893;-74
2021/03/26 00:18:40;;;;;;;;;43.33;32.33;;;;;5.32;83.03;101207.44;5148358;27;8803;-74
2021/03/26 00:21:36;;;;;;;;;80.00;64.00;;;;;5.36;82.87;101205.75;5145227;27;8831;-75
2021/03/26 00:24:32;;;;;;;;;78.33;64.00;;;;;5.38;82.77;101206.31;5131417;27;8841;-74
2021/03/26 00:27:27;;;;;;;;;78.00;65.67;;;;;5.27;82.75;101214.59;5144329;27;8835;-75
2021/03/26 00:30:24;;;;;;;;;82.00;62.33;;;;;5.08;83.56;101207.31;5133376;27;8821;-75
2021/03/26 00:33:21;;;;;;;;;72.67;61.00;;;;;5.21;83.29;101214.91;5144083;27;8947;-76
2021/03/26 00:36:17;;;;;;;;;80.67;61.00;;;;;5.15;83.48;101219.59;5144727;27;8819;-75
2021/03/26 00:39:13;;;;;;;;;81.67;61.00;;;;;5.22;83.13;101219.31;5135446;27;9530;-76
2021/03/26 00:42:09;;;;;;;;;81.67;65.33;;;;;5.24;82.73;101212.41;5146303;27;8828;-76
2021/03/26 00:45:06;;;;;;;;;72.00;58.33;;;;;5.09;83.18;101214.41;5143723;27;8847;-76
2021/03/26 00:48:03;;;;;;;;;76.00;62.33;;;;;5.10;82.76;101221.53;5145248;27;9564;-76
2021/03/26 00:51:01;;;;;;;;;83.67;62.67;;;;;5.03;83.23;101233.63;5130811;27;8889;-76
2021/03/26 00:53:57;;;;;;;;;76.00;63.33;;;;;5.23;82.59;101226.41;5144489;27;8809;-75
2021/03/26 00:56:52;;;;;;;;;17.33;15.33;;;;;5.10;82.82;101232.50;5143540;27;11515;-76
2021/03/26 00:59:48;;;;;;;;;65.00;55.00;;;;;5.15;82.79;101227.00;5145630;27;8839;-75
2021/03/26 01:02:44;;;;;;;;;69.33;58.00;;;;;5.20;82.78;101227.78;5143402;27;11514;-76
2021/03/26 01:05:50;;;;;;;;;73.67;61.00;;;;;5.12;82.67;101224.81;5142767;27;8829;-76
2021/03/26 01:08:46;;;;;;;;;74.67;59.67;;;;;5.15;82.76;101222.34;5131445;27;8835;-75
2021/03/26 01:11:42;;;;;;;;;70.33;54.67;;;;;5.23;82.49;101231.91;5130426;27;8843;-76
2021/03/26 01:14:37;;;;;;;;;65.33;52.33;;;;;5.19;82.61;101228.06;5142921;27;8863;-75
2021/03/26 01:17:33;;;;;;;;;76.67;61.00;;;;;5.21;82.18;101221.22;5142243;27;11486;-76
2021/03/26 01:20:11;;;;;;;;;65.33;54.33;;;;;5.14;82.87;101225.38;5145225;27;11579;-76
2021/03/26 01:23:07;;;;;;;;;72.67;60.00;;;;;5.09;82.55;101225.38;5140192;27;11544;-75
2021/03/26 01:26:04;;;;;;;;;67.33;58.33;;;;;5.29;81.88;101225.28;5140854;27;11578;-75
2021/03/26 01:29:00;;;;;;;;;66.00;55.67;;;;;5.13;82.03;101238.22;5139323;27;11492;-76
2021/03/26 01:31:55;;;;;;;;;73.00;57.67;;;;;5.14;82.59;101236.34;5142954;27;11500;-76
2021/03/26 01:34:51;;;;;;;;;66.00;56.67;;;;;5.10;82.75;101241.56;5139032;27;11498;-76
2021/03/26 01:37:47;;;;;;;;;67.67;55.33;;;;;5.10;82.41;101241.56;5145763;27;12372;-76
2021/03/26 01:40:50;;;;;;;;;71.00;60.00;;;;;4.93;82.72;101238.34;5143683;27;11494;-76
2021/03/26 01:43:46;;;;;;;;;71.00;57.00;;;;;4.94;83.09;101242.72;5143762;27;8831;-76
2021/03/26 01:46:16;;;;;;;;;79.67;60.67;;;;;4.78;83.34;101244.69;5145375;27;11525;-76
2021/03/26 01:48:47;;;;;;;;;77.33;60.67;;;;;4.97;82.99;101244.88;5144718;27;8912;-76
2021/03/26 01:51:46;;;;;;;;;67.67;57.67;;;;;5.00;82.90;101249.81;5144374;27;11507;-75
2021/03/26 01:54:42;;;;;;;;;71.33;60.00;;;;;5.01;82.52;101251.47;5142460;27;8832;-75
2021/03/26 01:57:38;;;;;;;;;77.67;62.67;;;;;4.89;82.96;101250.94;5141988;27;8893;-76
2021/03/26 02:00:46;;;;;;;;;72.67;58.67;;;;;4.94;83.34;101257.25;5143708;27;11684;-76
2021/03/26 02:03:45;;;;;;;;;67.00;54.00;;;;;5.03;82.85;101250.06;5142456;27;11529;-76
2021/03/26 02:06:46;;;;;;;;;74.00;58.00;;;;;4.89;82.75;101254.50;5143180;27;8804;-76
2021/03/26 02:09:42;;;;;;;;;70.00;56.00;;;;;4.65;83.74;101250.75;5131099;27;8829;-76
2021/03/26 02:12:39;;;;;;;;;74.67;62.67;;;;;4.78;83.74;101258.38;5141172;27;11607;-76
2021/03/26 02:15:14;;;;;;;;;73.00;59.33;;;;;4.75;83.46;101264.41;5125815;27;8909;-76
2021/03/26 02:18:17;;;;;;;;;76.00;63.00;;;;;4.87;83.31;101256.72;5143452;27;8827;-74
2021/03/26 02:21:18;;;;;;;;;74.67;60.67;;;;;4.90;83.05;101272.59;5141327;27;8809;-75
2021/03/26 02:24:13;;;;;;;;;76.00;61.00;;;;;4.85;82.86;101267.16;5141114;27;8787;-75
2021/03/26 02:27:14;;;;;;;;;75.00;60.67;;;;;4.71;83.01;101266.06;5143850;27;8823;-75
2021/03/26 02:30:17;;;;;;;;;78.00;59.67;;;;;4.79;83.04;101259.22;5129779;27;8831;-75
2021/03/26 02:33:14;;;;;;;;;68.33;56.67;;;;;4.75;82.94;101264.41;5143668;27;8849;-75
2021/03/26 02:36:13;;;;;;;;;81.33;63.67;;;;;4.79;82.88;101261.94;5141458;27;8907;-75
2021/03/26 02:39:25;;;;;;;;;79.33;63.00;;;;;4.82;83.02;101267.69;5143386;27;8842;-75
2021/03/26 02:42:25;;;;;;;;;76.67;62.67;;;;;4.82;82.79;101253.97;5147859;27;8840;-75
2021/03/26 02:45:30;;;;;;;;;75.33;62.00;;;;;4.78;82.96;101263.88;5146041;27;8835;-75
2021/03/26 02:48:37;;;;;;;;;77.67;63.33;;;;;4.86;82.77;101260.56;5147180;27;8913;-75
2021/03/26 02:52:01;;;;;;;;;76.33;60.67;;;;;4.78;82.78;101263.88;5146395;27;8813;-75
2021/03/26 02:55:05;;;;;;;;;78.00;65.00;;;;;4.82;82.75;101259.47;5147188;27;8851;-76
2021/03/26 02:58:06;;;;;;;;;78.33;63.33;;;;;4.77;82.58;101264.97;5148367;27;8817;-75
2021/03/26 03:01:05;;;;;;;;;85.00;66.00;;;;;4.79;82.86;101279.22;5145814;27;8840;-76
2021/03/26 03:04:08;;;;;;;;;79.33;58.67;;;;;4.86;82.45;101284.41;5133618;27;8943;-75
2021/03/26 03:06:52;;;;;;;;;70.00;58.33;;;;;4.90;82.48;101282.72;5130999;27;8843;-75
2021/03/26 03:09:52;;;;;;;;;66.67;56.67;;;;;4.94;82.57;101290.13;5136084;27;8971;-75
2021/03/26 03:12:51;;;;;;;;;69.67;59.33;;;;;5.03;82.26;101287.63;5131406;27;11497;-76
2021/03/26 03:15:54;;;;;;;;;81.67;63.00;;;;;5.00;82.03;101288.22;5132224;27;8813;-76
2021/03/26 03:19:05;;;;;;;;;79.00;63.00;;;;;5.05;81.10;101284.59;5132708;27;8834;-76
2021/03/26 03:22:05;;;;;;;;;81.00;65.33;;;;;5.09;81.09;101286.53;5144725;27;8854;-75
2021/03/26 03:25:09;;;;;;;;;86.67;68.00;;;;;4.89;81.14;101287.41;5133255;27;8821;-76
2021/03/26 03:28:32;;;;;;;;;78.67;62.00;;;;;4.86;80.74;101276.19;5144930;27;8821;-76
2021/03/26 03:31:55;;;;;;;;;80.33;64.00;;;;;4.75;80.91;101272.63;5142369;27;8854;-76
2021/03/26 03:35:32;;;;;;;;;76.00;62.67;;;;;5.00;80.91;101278.06;5145865;27;8850;-76
2021/03/26 03:38:47;;;;;;;;;75.00;57.33;;;;;4.80;80.95;101282.78;5125873;27;8892;-75
2021/03/26 03:41:47;;;;;;;;;73.00;59.67;;;;;4.69;81.45;101277.31;5147754;27;9643;-74
2021/03/26 03:45:09;;;;;;;;;72.33;60.33;;;;;4.84;81.05;101283.88;5145932;27;9577;-75
2021/03/26 03:48:08;;;;;;;;;78.67;61.67;;;;;4.93;80.77;101277.53;5136556;27;8887;-75
2021/03/26 03:50:44;;;;;;;;;88.33;70.00;;;;;4.97;81.01;101289.56;5146222;27;8825;-75
2021/03/26 03:53:54;;;;;;;;;89.67;71.67;;;;;4.83;80.93;101285.78;5146571;27;8854;-75
2021/03/26 03:56:58;;;;;;;;;92.33;72.67;;;;;4.93;80.40;101293.16;5131642;27;8811;-75
2021/03/26 04:00:06;;;;;;;;;88.67;70.67;;;;;4.74;80.82;101296.47;5133907;27;8858;-75
2021/03/26 04:03:10;;;;;;;;;87.00;70.00;;;;;4.84;80.67;101301.13;5140815;27;8833;-75
2021/03/26 04:06:11;;;;;;;;;90.33;73.00;;;;;4.98;80.31;101304.09;5131403;27;8825;-75
2021/03/26 04:09:11;;;;;;;;;92.00;72.67;;;;;5.00;80.14;101310.13;5141324;27;8823;-76
2021/03/26 04:12:18;;;;;;;;;90.33;71.67;;;;;5.09;80.17;101308.47;5145195;27;8812;-76
2021/03/26 04:15:32;;;;;;;;;97.33;75.67;;;;;4.83;80.80;101304.97;5145515;27;8840;-76
2021/03/26 04:18:39;;;;;;;;;93.33;76.33;;;;;4.94;80.48;101314.81;5144961;27;9632;-75
2021/03/26 04:21:39;;;;;;;;;105.00;95.00;;;;;5.07;79.96;101318.91;5145296;27;8822;-75
2021/03/26 04:24:43;;;;;;;;;100.33;83.00;;;;;5.09;79.46;101308.47;5145620;27;8921;-75
2021/03/26 04:27:41;;;;;;;;;99.67;81.00;;;;;5.21;79.53;101325.44;5145466;27;8829;-76
2021/03/26 04:30:42;;;;;;;;;99.67;86.00;;;;;5.29;80.12;101322.13;5146414;27;8827;-76
2021/03/26 04:33:38;;;;;;;;;98.33;83.33;;;;;5.38;79.79;101321.53;5144646;27;8830;-76
2021/03/26 04:37:05;;;;;;;;;103.33;91.33;;;;;5.42;79.50;101328.06;5141669;27;8928;-76
2021/03/26 04:40:15;;;;;;;;;114.67;102.33;;;;;5.53;79.33;101324.22;5145763;27;8942;-76
2021/03/26 04:43:33;;;;;;;;;96.33;80.33;;;;;5.41;78.73;101329.19;5145233;27;8823;-77
2021/03/26 04:46:18;;;;;;;;;105.67;91.67;;;;;5.39;78.76;101334.13;5146839;27;8815;-76
2021/03/26 04:50:09;;;;;;;;;88.00;70.00;;;;;5.36;78.73;101334.69;5132862;27;9577;-76
2021/03/26 04:53:20;;;;;;;;;86.33;69.00;;;;;5.28;78.74;101327.84;5132690;27;8947;-77
2021/03/26 04:56:24;;;;;;;;;116.67;104.67;;;;;5.28;79.77;101334.16;5144979;27;8819;-79
2021/03/26 04:59:29;;;;;;;;;75.67;62.67;;;;;5.20;79.24;101332.00;5132096;27;8813;-79
2021/03/26 05:02:25;;;;;;;;;83.67;65.33;;;;;5.39;78.10;101339.63;5129552;27;8947;-79
2021/03/26 05:05:22;;;;;;;;;83.67;63.33;;;;;5.28;78.64;101345.13;5131840;27;8824;-79
2021/03/26 05:08:19;;;;;;;;;81.00;64.67;;;;;5.34;78.80;101348.69;5130931;27;8851;-78
2021/03/26 05:11:19;;;;;;;;;79.00;64.00;;;;;5.33;78.82;101348.97;5132181;27;8813;-79
2021/03/26 05:14:20;;;;;;;;;68.00;55.67;;;;;5.51;78.54;101357.38;5134891;27;8826;-79
2021/03/26 05:17:33;;;;;;;;;70.00;57.67;;;;;5.65;78.34;101363.09;5145875;27;11580;-79
2021/03/26 05:20:39;;;;;;;;;48.00;43.50;;;;;5.38;77.69;101363.50;5144276;27;11534;-78
2021/03/26 05:24:16;;;;;;;;;54.75;47.00;;;;;5.27;78.51;101359.94;5145108;27;11550;-78
2021/03/26 05:27:12;;;;;;;;;60.25;48.75;;;;;5.41;78.09;101368.41;5145297;27;11477;-77
2021/03/26 05:30:10;;;;;;;;;61.75;51.25;;;;;5.61;77.91;101369.44;5142533;27;11502;-78
2021/03/26 05:33:25;;;;;;;;;52.25;45.00;;;;;5.61;78.08;101369.44;5143181;27;11572;-78
2021/03/26 05:36:35;;;;;;;;;85.00;64.33;;;;;5.83;77.95;101383.63;5143491;27;11504;-77
2021/03/26 05:39:34;;;;;;;;;50.50;45.75;;;;;5.72;77.25;101382.81;5127781;27;8823;-77
2021/03/26 05:42:40;;;;;;;;;49.00;43.50;;;;;5.89;76.70;101392.63;5139362;27;11527;-76
2021/03/26 05:45:26;;;;;;;;;50.00;41.50;;;;;6.04;76.93;101398.06;5128837;27;11507;-79
2021/03/26 05:48:36;;;;;;;;;52.75;46.00;;;;;5.97;76.83;101398.38;5133918;27;11490;-77
2021/03/26 05:52:02;;;;;;;;;44.00;41.25;;;;;6.06;76.97;101409.63;5134232;27;12277;-77
2021/03/26 05:54:33;;;;;;;;;51.75;46.00;;;;;6.09;77.11;101412.59;5145361;27;11605;-78
2021/03/26 05:57:50;;;;;;;;;34.50;34.50;;;;;6.09;76.44;101414.53;5140494;27;11638;-78
2021/03/26 06:00:58;;;;;;;;;52.50;46.25;;;;;6.24;76.82;101414.44;5148307;27;11544;-79
2021/03/26 06:03:58;;;;;;;;;35.50;33.75;;;;;6.04;76.42;101420.84;5134226;27;11509;-76
2021/03/26 06:07:13;;;;;;;;;54.25;44.25;;;;;6.43;76.06;101420.06;5145450;27;12263;-78
2021/03/26 06:10:33;;;;;;;;;39.00;37.50;;;;;5.94;75.66;101422.84;5135436;27;11466;-78
2021/03/26 06:13:52;;;;;;;;;42.50;41.00;;;;;6.19;75.94;101422.69;5109585;27;11495;-78
2021/03/26 06:17:14;;;;;;;;;26.00;25.75;;;;;6.16;76.26;101417.78;5097402;27;11545;-79
2021/03/26 06:20:54;;;;;;;;;50.25;44.50;;;;;6.12;76.51;101423.00;5102265;27;11506;-78
2021/03/26 06:23:36;;;;;;;;;49.25;44.25;;;;;6.27;75.98;101422.09;5113678;27;11530;-78
2021/03/26 06:26:59;;;;;;;;;;;;;;;;;;;;;
2021/03/26 06:30:26;;;;;;;;;56.25;42.50;;;;;6.68;75.78;101432.84;5143101;27;11512;-77
2021/03/26 06:33:31;;;;;;;;;49.50;45.25;;;;;6.52;75.52;101420.31;5144985;27;11499;-77
2021/03/26 06:36:44;;;;;;;;;40.25;35.50;;;;;6.66;75.63;101419.34;5142380;27;11557;-77
2021/03/26 06:39:16;;;;;;;;;38.00;35.75;;;;;6.57;75.66;101417.50;5142492;27;11505;-77
2021/03/26 06:41:59;;;;;;;;;39.00;35.75;;;;;6.85;74.51;101413.16;5148733;27;11524;-77
2021/03/26 06:45:06;;;;;;;;;36.00;36.00;;;;;6.76;74.09;101414.91;5126879;27;11536;-78
2021/03/26 06:48:11;;;;;;;;;32.50;31.75;;;;;6.96;74.36;101421.03;5129016;27;11489;-78
2021/03/26 06:50:39;;;;;;;;;48.00;41.00;;;;;7.19;74.07;101432.38;5148809;27;11518;-75
2021/03/26 06:53:38;;;;;;;;;55.50;45.00;;;;;7.30;73.62;101433.94;5151067;27;11536;-76
2021/03/26 06:57:08;;;;;;;;;42.25;39.00;;;;;7.36;73.28;101431.91;5144649;27;11520;-77
2021/03/26 07:00:37;;;;;;;;;53.25;46.25;;;;;7.59;72.82;101433.03;5154956;27;11500;-77
2021/03/26 07:03:42;;;;;;;;;50.75;45.50;;;;;7.86;73.17;101426.97;5148003;27;11503;-73
2021/03/26 07:06:16;;;;;;;;;32.25;32.00;;;;;7.90;72.12;101436.25;5131207;27;11536;-74
2021/03/26 07:09:19;;;;;;;;;42.75;40.25;;;;;7.70;71.23;101427.16;5144855;27;11487;-74
2021/03/26 07:12:45;;;;;;;;;40.00;38.00;;;;;7.34;72.63;101432.22;5143648;27;11527;-75
2021/03/26 07:16:02;;;;;;;;;44.00;37.00;;;;;7.38;71.98;101435.22;5141480;27;11598;-75
2021/03/26 07:18:49;;;;;;;;;41.25;37.00;;;;;7.73;71.97;101443.06;5144589;27;12303;-73
2021/03/26 07:21:49;;;;;;;;;40.00;38.25;;;;;7.91;71.40;101438.75;5142302;27;11505;-73
2021/03/26 07:25:02;;;;;;;;;43.50;40.25;;;;;7.56;72.62;101441.91;5142370;27;11624;-74
2021/03/26 07:28:56;;;;;;;;;45.50;41.25;;;;;7.77;71.66;101440.56;5139511;27;11506;-73
2021/03/26 07:32:18;;;;;;;;;48.75;42.75;;;;;7.66;71.04;101439.03;5146765;27;11504;-75
2021/03/26 07:35:36;;;;;;;;;38.50;37.75;;;;;8.08;71.71;101444.56;5136772;27;11710;-75
2021/03/26 07:38:50;;;;;;;;;42.00;39.25;;;;;8.20;71.17;101440.53;5147566;27;11526;-74
2021/03/26 07:41:28;;;;;;;;;35.50;32.75;;;;;7.81;70.43;101442.41;5159511;27;11495;-73
2021/03/26 07:44:36;;;;;;;;;38.00;34.75;;;;;8.24;69.60;101447.94;5121236;27;11518;-73
2021/03/26 07:47:24;;;;;;;;;43.00;40.25;;;;;8.53;69.63;101458.03;5137647;27;11576;-73
2021/03/26 07:50:41;;;;;;;;;36.75;36.50;;;;;8.56;69.53;101452.75;5147272;27;11590;-74
2021/03/26 07:54:15;;;;;;;;;39.00;38.25;;;;;8.86;68.21;101440.41;5135354;27;11504;-73
2021/03/26 07:57:15;;;;;;;;;30.00;30.00;;;;;8.73;69.31;101443.91;5133486;27;11659;-73
2021/03/26 08:00:33;;;;;;;;;30.25;30.25;;;;;8.96;68.29;101446.88;5135560;27;11547;-73
2021/03/26 08:04:10;;;;;;;;;33.25;32.75;;;;;8.93;65.95;101441.97;5145703;27;11665;-73
2021/03/26 08:07:21;;;;;;;;;31.25;30.75;;;;;8.82;67.40;101439.38;5156309;27;11499;-74
2021/03/26 08:10:07;;;;;;;;;36.50;36.00;;;;;9.22;65.39;101455.53;5157340;27;11464;-74
2021/03/26 08:13:03;;;;;;;;;10.75;10.75;;;;;9.54;64.94;101460.19;5139135;27;11452;-75
2021/03/26 08:15:57;;;;;;;;;38.25;37.00;;;;;9.15;65.16;101453.19;5135207;27;11429;-74
2021/03/26 08:18:55;;;;;;;;;38.50;37.25;;;;;9.31;64.74;101467.53;5150267;27;11465;-75
2021/03/26 08:21:56;;;;;;;;;32.25;32.25;;;;;9.66;64.33;101472.41;5149813;27;11532;-73
2021/03/26 08:25:22;;;;;;;;;30.75;30.75;;;;;9.89;62.56;101464.19;5141687;27;11410;-74
2021/03/26 08:28:36;;;;;;;;;24.50;24.50;;;;;9.41;63.10;101457.09;5152437;27;11498;-74
2021/03/26 08:32:05;;;;;;;;;17.25;16.75;;;;;9.83;62.57;101468.22;5135091;27;11438;-74
2021/03/26 08:34:55;;;;;;;;;26.50;26.00;;;;;10.13;62.22;101464.81;5156307;27;11390;-75
2021/03/26 08:37:34;;;;;;;;;28.25;28.25;;;;;10.49;62.43;101472.34;5142725;27;11537;-73
2021/03/26 08:40:39;;;;;;;;;23.25;23.25;;;;;10.48;60.46;101467.94;5157632;27;11507;-75
2021/03/26 08:43:36;;;;;;;;;25.00;24.25;;;;;10.41;61.21;101473.06;5155381;27;11435;-75
2021/03/26 08:46:45;;;;;;;;;27.25;25.75;;;;;10.74;60.80;101469.00;5139415;27;12258;-74
2021/03/26 08:49:22;;;;;;;;;25.75;25.00;;;;;11.13;60.90;101470.25;5150774;27;12236;-75
2021/03/26 08:52:17;;;;;;;;;30.25;28.50;;;;;11.45;60.33;101466.38;5136570;27;10946;-74
2021/03/26 08:54:52;;;;;;;;;31.50;28.75;;;;;11.16;58.95;101463.25;5144666;27;11286;-74
2021/03/26 08:57:27;;;;;;;;;27.75;27.75;;;;;10.78;59.25;101472.75;5150488;27;11072;-74
2021/03/26 09:00:37;;;;;;;;;33.50;33.25;;;;;11.07;60.20;101477.06;5134251;27;11049;-74
2021/03/26 09:04:01;;;;;;;;;26.00;26.00;;;;;10.91;59.61;101478.56;5136155;27;11026;-75
2021/03/26 09:06:52;;;;;;;;;27.00;27.00;;;;;10.63;59.48;101481.41;5131189;27;11005;-75
2021/03/26 09:09:54;;;;;;;;;23.75;23.50;;;;;10.83;60.15;101483.72;5135032;27;10858;-76
2021/03/26 09:13:21;;;;;;;;;28.50;28.50;;;;;11.28;63.72;101486.47;5134113;27;11094;-76
2021/03/26 09:16:11;;;;;;;;;27.00;27.00;;;;;11.80;59.53;101478.44;5135365;27;11148;-76
2021/03/26 09:19:46;;;;;;;;;36.25;34.50;;;;;11.95;61.24;101480.78;5133999;27;10844;-76
2021/03/26 09:23:04;;;;;;;;;52.00;42.75;;;;;12.32;56.16;101486.94;5083898;27;11449;-76
2021/03/26 09:26:12;;;;;;;;;27.75;23.50;;;;;12.15;57.61;101484.13;5135269;27;11459;-75
2021/03/26 09:29:37;;;;;;;;;29.50;29.00;;;;;11.91;56.58;101482.59;5134210;27;10644;-75
2021/03/26 09:32:36;;;;;;;;;33.75;33.25;;;;;11.74;58.78;101485.25;5134010;27;10926;-75
2021/03/26 09:35:35;;;;;;;;;29.75;29.75;;;;;11.91;57.32;101488.13;5133926;27;10841;-75
2021/03/26 09:38:28;;;;;;;;;32.00;31.25;;;;;11.56;57.75;101489.06;5134399;27;10874;-75
2021/03/26 09:41:22;;;;;;;;;26.00;26.00;;;;;11.61;57.30;101486.16;5117887;27;11519;-76
2021/03/26 09:44:17;;;;;;;;;32.25;32.25;;;;;11.59;58.23;101492.03;5134647;27;10824;-76
2021/03/26 09:47:18;;;;;;;;;31.50;31.50;;;;;11.09;56.49;101491.38;5132572;27;10683;-76
2021/03/26 09:50:35;;;;;;;;;21.50;21.50;;;;;11.20;57.74;101490.00;5132415;27;10827;-76
2021/03/26 09:53:37;;;;;;;;;24.75;24.25;;;;;11.28;56.74;101489.25;5119701;27;11700;-75
2021/03/26 09:56:28;;;;;;;;;28.50;28.50;;;;;11.90;58.27;101486.50;5116841;27;10888;-77
2021/03/26 09:59:34;;;;;;;;;20.00;20.00;;;;;11.97;56.70;101483.25;5134488;27;11633;-75
2021/03/26 10:02:37;;;;;;;;;26.75;23.75;;;;;12.07;53.89;101488.50;5122318;27;10690;-75
2021/03/26 10:05:54;;;;;;;;;29.00;29.00;;;;;12.18;57.95;101472.38;5136740;27;10600;-76
2021/03/26 10:09:10;;;;;;;;;25.00;25.00;;;;;12.55;53.30;101484.84;5122447;27;10852;-76
2021/03/26 10:11:40;;;;;;;;;19.50;19.50;;;;;12.59;52.95;101485.84;5138124;27;10520;-74
2021/03/26 10:14:55;;;;;;;;;22.25;22.00;;;;;12.42;54.00;101494.97;5136150;27;10299;-76
2021/03/26 10:17:48;;;;;;;;;22.75;22.75;;;;;12.50;52.13;101488.59;5134648;27;10341;-75
2021/03/26 10:20:55;;;;;;;;;21.25;21.25;;;;;12.49;53.03;101492.50;5133662;27;10842;-77
2021/03/26 10:24:16;;;;;;;;;21.50;19.25;;;;;12.64;52.06;101493.16;5132996;27;10089;-76
2021/03/26 10:27:34;;;;;;;;;14.00;14.00;;;;;12.76;49.50;101496.94;5133265;27;11114;-76
2021/03/26 10:30:39;;;;;;;;;19.75;19.75;;;;;13.30;55.33;101488.28;5133199;27;10088;-75
2021/03/26 10:33:55;;;;;;;;;16.50;16.50;;;;;13.71;51.16;101497.97;5133125;27;10178;-75
2021/03/26 10:37:03;;;;;;;;;12.25;12.25;;;;;14.33;50.45;101494.53;5133159;27;9923;-76
2021/03/26 10:40:06;;;;;;;;;14.25;14.25;;;;;14.11;47.12;101493.72;5133408;27;9813;-76
2021/03/26 10:43:29;;;;;;;;;13.00;13.00;;;;;14.58;46.78;101492.78;5119406;27;9533;-76
2021/03/26 10:46:28;;;;;;;;;21.25;19.50;;;;;14.92;46.61;101491.69;5133937;27;9388;-75
2021/03/26 10:48:55;;;;;;;;;26.75;26.00;;;;;14.65;46.43;101490.28;5133908;27;9681;-77
2021/03/26 10:51:57;;;;;;;;;14.25;14.25;;;;;13.56;45.10;101483.44;5133198;27;9756;-75
2021/03/26 10:55:24;;;;;;;;;12.25;12.25;;;;;13.33;45.56;101484.81;5132966;27;9594;-75
2021/03/26 10:58:42;;;;;;;;;13.50;13.50;;;;;13.11;44.55;101487.75;5134078;27;9521;-75
2021/03/26 11:01:42;;;;;;;;;12.75;12.75;;;;;13.46;47.24;101492.16;5137143;27;9511;-76
2021/03/26 11:04:42;;;;;;;;;11.00;11.00;;;;;13.96;46.13;101497.06;5138151;27;9684;-75
2021/03/26 11:08:09;;;;;;;;;11.50;11.50;;;;;13.43;45.10;101483.69;5137690;27;9441;-75
2021/03/26 11:11:09;;;;;;;;;11.00;11.00;;;;;13.99;45.39;101488.03;5137329;27;9758;-74
2021/03/26 11:14:23;;;;;;;;;16.00;15.67;;;;;14.35;45.75;101483.91;5145214;27;9662;-75
2021/03/26 11:17:38;;;;;;;;;9.33;9.33;;;;;14.95;43.68;101489.06;5145084;27;9539;-76
2021/03/26 11:20:22;;;;;;;;;11.00;11.00;;;;;14.39;40.13;101487.63;5147402;27;9315;-77
2021/03/26 11:23:27;;;;;;;;;10.67;10.67;;;;;13.87;40.69;101491.50;5144139;27;9463;-75
2021/03/26 11:26:04;;;;;;;;;9.00;9.00;;;;;13.41;43.17;101483.97;5146999;27;10095;-75
2021/03/26 11:29:14;;;;;;;;;8.33;8.33;;;;;14.12;40.22;101489.78;5147345;27;9938;-76
2021/03/26 11:31:55;;;;;;;;;9.00;9.00;;;;;14.48;43.06;101482.03;5128387;27;9223;-75
2021/03/26 11:35:07;;;;;;;;;7.33;7.33;;;;;14.72;39.34;101484.97;5146200;27;9321;-74
2021/03/26 11:38:26;;;;;;;;;4.67;4.67;;;;;15.21;41.99;101486.00;5144829;27;9221;-75
2021/03/26 11:41:23;;;;;;;;;7.33;7.33;;;;;15.02;40.65;101482.91;5145245;27;9804;-77
2021/03/26 11:44:28;;;;;;;;;7.00;7.00;;;;;14.89;41.73;101478.47;5144785;27;8927;-75
2021/03/26 11:47:27;;;;;;;;;7.00;7.00;;;;;15.18;38.91;101491.44;5145635;27;9099;-75
2021/03/26 11:49:59;;;;;;;;;4.75;4.75;;;;;14.42;38.12;101489.75;5146190;27;9038;-76
2021/03/26 11:52:58;;;;;;;;;8.67;8.67;;;;;14.87;38.71;101486.31;5131128;27;8951;-73
2021/03/26 11:56:27;;;;;;;;;6.00;6.00;;;;;15.62;42.06;101467.56;5148291;27;8936;-76
2021/03/26 11:59:13;;;;;;;;;6.33;6.33;;;;;15.90;39.87;101472.47;5146065;27;9652;-75
2021/03/26 12:02:22;;;;;;;;;7.50;7.50;;;;;15.15;37.32;101469.84;5146753;27;9049;-76
2021/03/26 12:05:36;;;;;;;;;10.75;10.75;;;;;15.47;41.42;101479.34;5144921;27;9597;-76
2021/03/26 12:08:55;;;;;;;;;5.25;5.25;;;;;15.17;36.12;101470.31;5138260;27;8839;-76
2021/03/26 12:11:49;;;;;;;;;11.00;10.00;;;;;15.28;37.96;101477.91;5147677;27;8865;-77
2021/03/26 12:14:44;;;;;;;;;10.50;10.50;;;;;15.64;39.12;101473.63;5146277;27;9004;-79
2021/03/26 12:18:02;;;;;;;;;9.00;7.50;;;;;14.87;37.40;101484.34;5145717;27;8821;-75
2021/03/26 12:21:12;;;;;;;;;9.67;9.67;;;;;15.38;38.52;101487.00;5144380;27;8891;-75
2021/03/26 12:24:31;;;;;;;;;8.00;8.00;;;;;15.43;38.67;101484.81;5143262;27;9018;-76
2021/03/26 12:27:21;;;;;;;;;11.33;10.67;;;;;15.36;38.73;101486.53;5147359;27;8991;-77
2021/03/26 12:30:26;;;;;;;;;7.33;7.33;;;;;15.52;38.04;101487.50;5145476;27;9063;-76
2021/03/26 12:33:04;;;;;;;;;6.00;6.00;;;;;15.80;37.49;101485.72;5145329;27;9009;-75
2021/03/26 12:36:10;;;;;;;;;7.00;7.00;;;;;14.78;36.54;101488.38;5144945;27;8829;-76
2021/03/26 12:39:18;;;;;;;;;13.67;13.67;;;;;15.74;36.82;101481.53;5143303;27;8927;-75
2021/03/26 12:42:22;;;;;;;;;12.33;12.33;;;;;16.04;37.59;101481.31;5132849;27;9122;-76
2021/03/26 12:45:26;;;;;;;;;11.33;11.33;;;;;16.37;36.63;101483.97;5136684;27;9089;-76
2021/03/26 12:48:34;;;;;;;;;14.00;13.33;;;;;16.02;35.59;101478.03;5143052;27;9164;-75
2021/03/26 12:51:57;;;;;;;;;12.50;12.50;;;;;16.04;38.85;101481.31;5143057;27;9265;-74
2021/03/26 12:54:33;;;;;;;;;20.00;20.00;;;;;16.86;41.70;101475.47;5127018;27;8854;-73
2021/03/26 12:57:32;;;;;;;;;17.00;17.00;;;;;16.67;35.44;101479.72;5151765;27;9317;-73
2021/03/26 13:00:52;;;;;;;;;54.25;42.75;;;;;15.90;37.82;101478.88;5130799;27;9566;-74
2021/03/26 13:03:35;;;;;;;;;41.50;37.00;;;;;15.49;38.29;101477.88;5135359;27;10557;-72
2021/03/26 13:06:45;;;;;;;;;32.33;31.00;;;;;16.42;37.54;101474.53;5134653;27;10278;-72
2021/03/26 13:09:36;;;;;;;;;52.75;40.25;;;;;16.89;36.21;101483.19;5149288;27;9525;-73
2021/03/26 13:12:37;;;;;;;;;34.67;30.00;;;;;17.00;32.90;101472.28;5140036;27;9592;-72
2021/03/26 13:15:22;;;;;;;;;28.75;27.75;;;;;16.44;35.63;101475.00;5140688;27;9229;-73
2021/03/26 13:18:02;;;;;;;;;16.33;13.67;;;;;16.55;34.56;101476.13;5140949;27;8931;-74
2021/03/26 13:21:24;;;;;;;;;35.33;29.33;;;;;16.43;35.20;101471.41;5139193;27;10005;-74
2021/03/26 13:23:55;;;;;;;;;25.00;25.00;;;;;16.19;33.56;101469.44;5067795;28;9070;-73
2021/03/26 13:26:39;;;;;;;;;32.00;29.75;;;;;16.50;35.18;101468.00;5098444;28;8869;-74
2021/03/26 13:29:36;;;;;;;;;39.00;35.33;;;;;16.49;37.55;101475.56;5093896;28;8833;-75
2021/03/26 13:33:05;;;;;;;;;13.75;13.25;;;;;16.12;36.83;101475.63;5093568;28;9474;-72
2021/03/26 13:36:06;;;;;;;;;26.00;22.67;;;;;15.75;37.80;101471.19;5095331;28;9701;-74
2021/03/26 13:38:56;;;;;;;;;23.00;23.00;;;;;15.62;34.93;101469.53;5093420;28;8941;-74
2021/03/26 13:42:15;;;;;;;;;21.00;18.00;;;;;15.37;36.25;101483.41;5093681;28;9017;-74
2021/03/26 13:44:52;;;;;;;;;15.67;15.67;;;;;15.53;36.48;101472.41;5092540;28;9097;-75
2021/03/26 13:47:56;;;;;;;;;17.67;17.67;;;;;15.97;36.61;101472.72;5100744;28;9009;-73
2021/03/26 13:50:25;;;;;;;;;22.33;21.33;;;;;15.62;40.95;101475.13;5106276;28;9239;-74
2021/03/26 13:53:25;;;;;;;;;19.67;19.67;;;;;15.40;38.56;101470.72;5113708;28;9327;-75
2021/03/26 13:56:24;;;;;;;;;22.00;22.00;;;;;15.05;39.18;101465.53;5112654;28;9031;-74
2021/03/26 13:59:42;;;;;;;;;21.33;21.33;;;;;15.74;38.99;101469.56;5104789;28;9319;-74
2021/03/26 14:02:43;;;;;;;;;17.67;17.67;;;;;14.64;39.41;101464.41;5109917;28;10221;-74
2021/03/26 14:05:27;;;;;;;;;22.00;22.00;;;;;15.07;39.93;101476.31;5106074;28;9411;-74